createdAt,value
2022-08-17T00:03:13.550Z,21.42
2022-08-17T00:08:21.861Z,21.92
2022-08-17T00:13:31.181Z,21.30
2022-08-17T00:23:59.132Z,20.40
2022-08-17T00:29:03.839Z,19.88
2022-08-17T00:34:08.853Z,21.55
2022-08-17T00:39:12.121Z,21.70
2022-08-17T00:44:16.845Z,21.33
2022-08-17T00:49:23.637Z,21.98
2022-08-17T00:54:31.347Z,22.88
2022-08-17T00:59:39.082Z,21.63
2022-08-17T01:04:44.380Z,22.15
2022-08-17T01:09:48.498Z,22.50
2022-08-17T01:14:53.245Z,22.15
2022-08-17T01:19:57.102Z,23.75
2022-08-17T01:25:04.181Z,24.35
2022-08-17T01:30:58.066Z,23.98
2022-08-17T01:35:34.206Z,22.30
2022-08-17T01:40:41.268Z,22.38
2022-08-17T01:45:48.638Z,22.92
2022-08-17T01:51:07.657Z,20.60
2022-08-17T01:56:15.912Z,22.77
2022-08-17T02:01:22.959Z,21.90
2022-08-17T02:06:27.672Z,21.38
2022-08-17T02:11:34.668Z,21.52
2022-08-17T02:16:40.310Z,20.95
2022-08-17T02:21:45.841Z,22.60
2022-08-17T02:26:50.735Z,22.48
2022-08-17T02:31:54.408Z,22.45
2022-08-17T02:36:57.697Z,22.67
2022-08-17T02:42:03.759Z,25.10
2022-08-17T02:47:08.664Z,25.30
2022-08-17T02:52:11.967Z,22.75
2022-08-17T02:57:16.799Z,22.17
2022-08-17T03:02:20.098Z,24.88
2022-08-17T03:07:23.418Z,23.63
2022-08-17T03:12:33.457Z,24.63
2022-08-17T03:17:37.207Z,24.73
2022-08-17T03:22:43.190Z,22.83
2022-08-17T03:27:53.379Z,25.73
2022-08-17T03:33:00.715Z,25.58
2022-08-17T03:38:05.128Z,24.88
2022-08-17T03:43:11.059Z,25.23
2022-08-17T03:48:31.909Z,24.02
2022-08-17T03:54:05.226Z,23.27
2022-08-17T03:59:22.272Z,25.70
2022-08-17T04:04:27.573Z,24.00
2022-08-17T04:09:31.664Z,23.95
2022-08-17T04:14:51.920Z,26.45
2022-08-17T04:19:58.304Z,25.17
2022-08-17T04:25:04.280Z,25.80
2022-08-17T04:30:10.616Z,25.63
2022-08-17T04:35:13.991Z,27.23
2022-08-17T04:40:36.048Z,27.27
2022-08-17T04:45:55.356Z,25.80
2022-08-17T04:51:00.612Z,26.40
2022-08-17T04:56:04.971Z,26.45
2022-08-17T05:01:10.040Z,24.38
2022-08-17T05:06:13.680Z,32.60
2022-08-17T05:11:17.114Z,30.45
2022-08-17T05:16:23.280Z,27.60
2022-08-17T05:21:27.742Z,32.28
2022-08-17T05:26:31.040Z,38.50
2022-08-17T05:31:35.714Z,39.80
2022-08-17T05:36:43.868Z,36.45
2022-08-17T05:41:49.139Z,37.10
2022-08-17T05:46:54.417Z,37.03
2022-08-17T05:52:09.242Z,35.83
2022-08-17T05:57:39.527Z,36.88
2022-08-17T06:03:01.652Z,33.30
2022-08-17T06:08:14.195Z,29.80
2022-08-17T06:13:26.900Z,25.38
2022-08-17T06:18:37.808Z,22.98
2022-08-17T06:23:46.022Z,22.48
2022-08-17T06:28:54.099Z,19.40
2022-08-17T06:34:02.882Z,17.40
2022-08-17T06:39:30.074Z,20.02
2022-08-17T06:44:43.651Z,18.48
2022-08-17T06:50:04.510Z,17.90
2022-08-17T06:55:18.022Z,18.15
2022-08-17T07:00:25.662Z,17.38
2022-08-17T07:05:36.658Z,13.98
2022-08-17T07:10:47.305Z,12.30
2022-08-17T07:15:57.071Z,11.95
2022-08-17T07:21:14.192Z,14.00
2022-08-17T07:26:23.394Z,13.13
2022-08-17T07:31:30.552Z,12.32
2022-08-17T07:36:35.830Z,12.15
2022-08-17T07:41:58.104Z,11.07
2022-08-17T07:47:20.017Z,12.60
2022-08-17T07:52:51.457Z,13.35
2022-08-17T07:57:57.971Z,10.23
2022-08-17T08:03:14.831Z,12.80
2022-08-17T08:08:33.581Z,12.93
2022-08-17T08:13:42.714Z,12.25
2022-08-17T08:18:54.690Z,10.30
2022-08-17T08:24:14.522Z,10.45
2022-08-17T08:29:29.463Z,9.60
2022-08-17T08:35:03.023Z,9.20
2022-08-17T08:40:21.439Z,8.00
2022-08-17T08:50:47.583Z,9.52
2022-08-17T08:55:56.017Z,8.32
2022-08-17T09:06:37.431Z,8.27
2022-08-17T09:12:01.900Z,8.35
2022-08-17T09:17:13.765Z,8.23
2022-08-17T09:22:38.137Z,8.27
2022-08-17T09:27:53.042Z,9.18
2022-08-17T09:33:03.022Z,9.00
2022-08-17T09:38:16.082Z,8.90
2022-08-17T09:43:28.787Z,12.77
2022-08-17T09:48:38.602Z,10.25
2022-08-17T09:53:44.764Z,12.00
2022-08-17T09:59:10.283Z,9.32
2022-08-17T10:04:38.794Z,9.57
2022-08-17T10:09:56.143Z,8.98
2022-08-17T10:15:22.572Z,9.95
2022-08-17T10:20:30.708Z,9.73
2022-08-17T10:25:56.765Z,9.30
2022-08-17T10:31:33.088Z,9.63
2022-08-17T10:36:43.279Z,8.02
2022-08-17T10:41:50.564Z,8.43
2022-08-17T10:47:06.554Z,8.57
2022-08-17T10:52:44.311Z,8.73
2022-08-17T10:57:50.248Z,7.40
2022-08-17T11:02:57.573Z,8.13
2022-08-17T11:08:19.730Z,8.80
2022-08-17T11:13:37.795Z,8.43
2022-08-17T11:19:38.384Z,8.73
2022-08-17T11:24:48.001Z,7.75
2022-08-17T11:30:01.545Z,7.80
2022-08-17T11:35:26.853Z,7.55
2022-08-17T11:41:02.786Z,7.95
2022-08-17T11:46:21.100Z,6.85
2022-08-17T11:51:58.466Z,8.13
2022-08-17T11:57:23.097Z,8.15
2022-08-17T12:02:34.787Z,8.18
2022-08-17T12:07:44.389Z,7.90
2022-08-17T12:12:51.400Z,7.95
2022-08-17T12:17:58.064Z,7.28
2022-08-17T12:23:10.513Z,7.45
2022-08-17T12:28:23.614Z,7.20
2022-08-17T12:33:28.913Z,7.47
2022-08-17T12:38:36.310Z,7.47
2022-08-17T12:43:39.730Z,8.55
2022-08-17T12:48:59.303Z,11.70
2022-08-17T12:54:05.102Z,7.30
2022-08-17T12:59:08.552Z,6.45
2022-08-17T13:04:15.280Z,7.13
2022-08-17T13:09:36.018Z,7.65
2022-08-17T13:14:46.778Z,7.40
2022-08-17T13:19:52.247Z,6.47
2022-08-17T13:25:03.560Z,6.60
2022-08-17T13:30:12.879Z,6.90
2022-08-17T13:35:40.949Z,6.43
2022-08-17T13:40:50.463Z,6.75
2022-08-17T13:45:54.729Z,6.90
2022-08-17T13:51:13.904Z,7.15
2022-08-17T13:56:38.556Z,6.80
2022-08-17T14:01:51.162Z,6.07
2022-08-17T14:07:01.340Z,6.63
2022-08-17T14:12:10.739Z,6.13
2022-08-17T14:17:14.728Z,6.93
2022-08-17T14:22:23.824Z,6.18
2022-08-17T14:27:31.908Z,6.47
2022-08-17T14:32:38.509Z,7.00
2022-08-17T14:37:41.914Z,6.45
2022-08-17T14:42:46.708Z,6.32
2022-08-17T14:47:50.212Z,6.22
2022-08-17T14:52:56.121Z,6.57
2022-08-17T14:58:04.096Z,6.32
2022-08-17T15:03:07.850Z,6.90
2022-08-17T15:08:11.211Z,6.28
2022-08-17T15:13:20.159Z,6.90
2022-08-17T15:18:23.732Z,6.82
2022-08-17T15:23:28.176Z,5.75
2022-08-17T15:28:33.442Z,6.75
2022-08-17T15:33:42.461Z,7.05
2022-08-17T15:38:47.282Z,6.75
2022-08-17T15:43:52.102Z,6.93
2022-08-17T15:48:58.431Z,7.35
2022-08-17T15:54:19.342Z,7.45
2022-08-17T15:59:30.407Z,6.68
2022-08-17T16:04:35.029Z,7.07
2022-08-17T16:09:41.946Z,6.80
2022-08-17T16:14:48.519Z,6.80
2022-08-17T16:19:52.563Z,8.02
2022-08-17T16:24:57.508Z,7.05
2022-08-17T16:30:03.004Z,7.47
2022-08-17T16:35:09.098Z,7.60
2022-08-17T16:40:14.875Z,8.13
2022-08-17T16:45:23.990Z,7.70
2022-08-17T16:50:27.439Z,6.88
2022-08-17T16:55:30.874Z,7.15
2022-08-17T17:00:36.303Z,8.23
2022-08-17T17:06:03.808Z,8.52
2022-08-17T17:11:14.992Z,7.90
2022-08-17T17:16:36.503Z,8.57
2022-08-17T17:21:47.877Z,7.55
2022-08-17T17:27:15.023Z,8.30
2022-08-17T17:32:26.381Z,7.40
2022-08-17T17:37:35.145Z,7.85
2022-08-17T17:42:42.410Z,9.07
2022-08-17T17:47:48.226Z,7.90
2022-08-17T17:53:00.459Z,10.85
2022-08-17T17:58:23.270Z,8.43
2022-08-17T18:03:50.775Z,9.48
2022-08-17T18:09:06.339Z,10.52
2022-08-17T18:14:23.513Z,10.23
2022-08-17T18:19:30.079Z,10.20
2022-08-17T18:24:36.523Z,12.20
2022-08-17T18:29:44.347Z,11.02
2022-08-17T18:34:52.572Z,11.43
2022-08-17T18:39:56.171Z,10.05
2022-08-17T18:44:59.809Z,9.10
2022-08-17T18:50:24.789Z,9.40
2022-08-17T18:55:29.379Z,9.45
2022-08-17T19:00:37.026Z,10.65
2022-08-17T19:05:46.200Z,11.32
2022-08-17T19:10:52.867Z,11.13
2022-08-17T19:16:14.020Z,11.40
2022-08-17T19:21:24.768Z,11.70
2022-08-17T19:26:50.714Z,11.60
2022-08-17T19:31:58.716Z,12.67
2022-08-17T19:37:09.986Z,12.75
2022-08-17T19:42:19.713Z,12.82
2022-08-17T19:47:53.210Z,13.45
2022-08-17T19:53:02.734Z,13.02
2022-08-17T19:58:18.127Z,13.45
2022-08-17T20:03:26.766Z,14.68
2022-08-17T20:08:35.858Z,13.77
2022-08-17T20:13:42.728Z,13.27
2022-08-17T20:18:53.190Z,14.40
2022-08-17T20:24:05.743Z,14.07
2022-08-17T20:30:02.001Z,14.23
2022-08-17T20:35:26.224Z,13.68
2022-08-17T20:40:35.345Z,14.98
2022-08-17T20:46:04.125Z,14.30
2022-08-17T20:51:30.557Z,14.93
2022-08-17T20:56:56.277Z,15.70
2022-08-17T21:02:18.653Z,15.60
2022-08-17T21:07:29.263Z,16.23
2022-08-17T21:12:47.928Z,15.30
2022-08-17T21:18:06.666Z,16.30
2022-08-17T21:23:26.018Z,18.07
2022-08-17T21:29:00.218Z,16.70
2022-08-17T21:34:26.460Z,16.55
2022-08-17T21:39:34.167Z,15.60
2022-08-17T21:44:46.888Z,16.95
2022-08-17T21:49:50.304Z,16.85
2022-08-17T21:54:57.202Z,17.25
2022-08-17T22:00:06.619Z,16.73
2022-08-17T22:05:12.955Z,15.90
2022-08-17T22:10:30.625Z,15.68
2022-08-17T22:15:39.955Z,16.08
2022-08-17T22:20:43.354Z,16.52
2022-08-17T22:26:00.253Z,16.23
2022-08-17T22:31:06.672Z,16.38
2022-08-17T22:36:24.677Z,16.70
2022-08-17T22:41:40.665Z,17.95
2022-08-17T22:46:55.466Z,19.42
2022-08-17T22:52:24.346Z,18.58
2022-08-17T22:57:52.756Z,17.90
2022-08-17T23:03:19.112Z,18.58
2022-08-17T23:08:23.025Z,17.63
2022-08-17T23:13:28.133Z,17.77
2022-08-17T23:18:32.902Z,18.13
2022-08-17T23:23:37.192Z,19.45
2022-08-17T23:28:41.235Z,18.42
2022-08-17T23:33:47.056Z,17.58
2022-08-17T23:38:50.606Z,18.83
2022-08-17T23:43:55.305Z,18.42
2022-08-17T23:49:00.874Z,18.10
2022-08-17T23:54:12.708Z,18.38
2022-08-17T23:59:17.982Z,18.92
